createdAt,value
2023-04-25T00:02:24.386Z,3.45
2023-04-25T00:04:53.793Z,3.10
2023-04-25T00:07:22.045Z,4.80
2023-04-25T00:09:49.879Z,3.55
2023-04-25T00:12:17.997Z,3.53
2023-04-25T00:14:46.550Z,4.28
2023-04-25T00:17:14.282Z,3.63
2023-04-25T00:19:41.972Z,3.08
2023-04-25T00:22:11.128Z,4.40
2023-04-25T00:24:38.909Z,4.00
2023-04-25T00:27:06.639Z,3.15
2023-04-25T00:29:34.411Z,4.15
2023-04-25T00:32:02.649Z,2.85
2023-04-25T00:34:30.535Z,3.97
2023-04-25T00:36:58.790Z,3.88
2023-04-25T00:39:27.926Z,3.42
2023-04-25T00:41:56.711Z,3.72
2023-04-25T00:44:25.375Z,4.03
2023-04-25T00:46:54.356Z,4.00
2023-04-25T00:49:22.132Z,3.13
2023-04-25T00:51:50.335Z,3.80
2023-04-25T00:54:18.591Z,3.50
2023-04-25T00:56:47.828Z,3.70
2023-04-25T00:59:17.774Z,3.60
2023-04-25T01:01:46.166Z,3.50
2023-04-25T01:04:15.247Z,4.57
2023-04-25T01:06:43.504Z,3.47
2023-04-25T01:09:11.722Z,3.35
2023-04-25T01:11:41.069Z,3.05
2023-04-25T01:14:10.269Z,3.80
2023-04-25T01:16:38.388Z,3.60
2023-04-25T01:19:11.938Z,4.00
2023-04-25T01:21:41.425Z,4.00
2023-04-25T01:24:09.532Z,3.42
2023-04-25T01:26:37.994Z,3.33
2023-04-25T01:29:06.337Z,3.30
2023-04-25T01:31:35.068Z,4.00
2023-04-25T01:34:02.955Z,3.17
2023-04-25T01:36:31.488Z,3.78
2023-04-25T01:39:00.701Z,3.92
2023-04-25T01:41:29.042Z,3.85
2023-04-25T01:43:57.627Z,3.25
2023-04-25T01:46:25.582Z,3.92
2023-04-25T01:48:53.401Z,4.00
2023-04-25T01:51:21.466Z,2.75
2023-04-25T01:53:49.572Z,3.15
2023-04-25T01:56:20.010Z,3.40
2023-04-25T01:58:47.747Z,3.97
2023-04-25T02:01:15.633Z,3.67
2023-04-25T02:03:43.778Z,3.70
2023-04-25T02:06:11.567Z,3.17
2023-04-25T02:08:39.337Z,4.10
2023-04-25T02:11:07.044Z,3.75
2023-04-25T02:13:36.157Z,3.75
2023-04-25T02:16:04.097Z,3.45
2023-04-25T02:18:32.235Z,3.47
2023-04-25T02:21:00.110Z,3.47
2023-04-25T02:23:27.805Z,3.72
2023-04-25T02:25:56.319Z,3.70
2023-04-25T02:28:24.018Z,3.47
2023-04-25T02:30:53.134Z,3.65
2023-04-25T02:33:21.994Z,4.32
2023-04-25T02:35:50.046Z,4.50
2023-04-25T02:38:17.772Z,3.50
2023-04-25T02:40:45.619Z,3.33
2023-04-25T02:43:13.411Z,3.92
2023-04-25T02:45:41.089Z,4.03
2023-04-25T02:48:10.224Z,4.35
2023-04-25T02:50:37.996Z,4.13
2023-04-25T02:53:05.748Z,4.40
2023-04-25T02:55:33.443Z,4.18
2023-04-25T02:58:01.308Z,3.92
2023-04-25T03:00:29.144Z,4.10
2023-04-25T03:02:57.708Z,3.55
2023-04-25T03:05:26.922Z,3.88
2023-04-25T03:07:54.630Z,3.53
2023-04-25T03:10:22.312Z,4.43
2023-04-25T03:12:50.016Z,3.88
2023-04-25T03:15:18.180Z,4.70
2023-04-25T03:17:46.078Z,5.32
2023-04-25T03:20:14.074Z,3.35
2023-04-25T03:22:43.220Z,4.30
2023-04-25T03:25:10.929Z,4.47
2023-04-25T03:27:38.615Z,4.00
2023-04-25T03:30:08.800Z,4.00
2023-04-25T03:32:36.607Z,4.72
2023-04-25T03:35:04.687Z,3.53
2023-04-25T03:37:32.439Z,4.40
2023-04-25T03:40:01.564Z,3.75
2023-04-25T03:42:29.306Z,3.83
2023-04-25T03:44:57.111Z,3.92
2023-04-25T03:47:24.817Z,3.92
2023-04-25T03:49:52.810Z,3.92
2023-04-25T03:52:20.520Z,4.43
2023-04-25T03:54:48.235Z,4.07
2023-04-25T03:57:17.346Z,4.63
2023-04-25T03:59:45.119Z,4.10
2023-04-25T04:02:12.981Z,4.00
2023-04-25T04:04:41.125Z,3.90
2023-04-25T04:07:09.031Z,4.35
2023-04-25T04:09:36.768Z,3.80
2023-04-25T04:12:04.853Z,3.55
2023-04-25T04:14:34.053Z,4.47
2023-04-25T04:17:01.884Z,3.35
2023-04-25T04:19:29.600Z,4.32
2023-04-25T04:21:57.320Z,3.58
2023-04-25T04:24:25.112Z,2.97
2023-04-25T04:26:53.086Z,4.32
2023-04-25T04:29:22.553Z,3.80
2023-04-25T04:31:53.714Z,3.97
2023-04-25T04:34:21.669Z,3.70
2023-04-25T04:36:49.921Z,4.03
2023-04-25T04:39:17.694Z,3.33
2023-04-25T04:41:45.407Z,3.97
2023-04-25T04:44:13.459Z,4.05
2023-04-25T04:46:43.196Z,3.53
2023-04-25T04:49:14.678Z,3.97
2023-04-25T04:51:45.386Z,3.47
2023-04-25T04:54:13.073Z,4.05
2023-04-25T04:56:41.284Z,4.05
2023-04-25T04:59:09.000Z,4.10
2023-04-25T05:01:37.230Z,4.45
2023-04-25T05:04:05.280Z,4.88
2023-04-25T05:06:34.432Z,5.00
2023-04-25T05:09:02.128Z,4.10
2023-04-25T05:11:29.924Z,4.70
2023-04-25T05:13:57.675Z,4.20
2023-04-25T05:16:25.506Z,4.80
2023-04-25T05:18:53.265Z,4.13
2023-04-25T05:21:20.942Z,6.20
2023-04-25T05:23:50.611Z,4.88
2023-04-25T05:26:18.556Z,4.68
2023-04-25T05:28:46.297Z,4.30
2023-04-25T05:31:14.109Z,4.63
2023-04-25T05:33:41.834Z,4.30
2023-04-25T05:36:10.283Z,4.90
2023-04-25T05:38:37.953Z,4.18
2023-04-25T05:41:07.100Z,3.60
2023-04-25T05:43:34.852Z,4.57
2023-04-25T05:46:02.744Z,4.45
2023-04-25T05:48:31.002Z,5.03
2023-04-25T05:50:58.698Z,3.90
2023-04-25T05:53:26.391Z,4.93
2023-04-25T05:55:54.089Z,4.40
2023-04-25T05:58:23.183Z,4.13
2023-04-25T06:00:51.243Z,4.82
2023-04-25T06:03:20.906Z,4.85
2023-04-25T06:05:49.162Z,4.05
2023-04-25T06:08:16.950Z,4.10
2023-04-25T06:10:44.823Z,3.85
2023-04-25T06:13:12.600Z,4.53
2023-04-25T06:15:41.658Z,6.60
2023-04-25T06:18:09.534Z,4.68
2023-04-25T06:20:37.307Z,4.97
2023-04-25T06:23:05.069Z,4.78
2023-04-25T06:25:32.783Z,4.22
2023-04-25T06:28:00.796Z,4.72
2023-04-25T06:30:28.794Z,4.63
2023-04-25T06:32:57.948Z,4.05
2023-04-25T06:35:25.733Z,4.22
2023-04-25T06:37:53.455Z,4.45
2023-04-25T06:40:21.314Z,4.68
2023-04-25T06:42:49.115Z,4.68
2023-04-25T06:45:16.952Z,3.92
2023-04-25T06:47:44.962Z,3.53
2023-04-25T06:50:14.129Z,3.50
2023-04-25T06:52:41.884Z,3.53
2023-04-25T06:55:10.740Z,3.67
2023-04-25T06:57:38.548Z,3.25
2023-04-25T07:00:10.258Z,2.50
2023-04-25T07:02:38.549Z,3.08
2023-04-25T07:05:06.880Z,2.42
2023-04-25T07:07:38.599Z,2.35
2023-04-25T07:10:07.488Z,2.63
2023-04-25T07:12:35.294Z,2.78
2023-04-25T07:15:06.820Z,2.97
2023-04-25T07:17:35.719Z,2.33
2023-04-25T07:20:04.774Z,2.30
2023-04-25T07:22:32.481Z,2.78
2023-04-25T07:25:01.588Z,2.28
2023-04-25T07:27:29.460Z,1.85
2023-04-25T07:29:57.311Z,2.67
2023-04-25T07:32:25.489Z,1.85
2023-04-25T07:34:53.259Z,1.75
2023-04-25T07:37:21.170Z,2.35
2023-04-25T07:39:48.990Z,2.22
2023-04-25T07:42:18.105Z,2.08
2023-04-25T07:44:45.945Z,2.78
2023-04-25T07:47:14.132Z,2.58
2023-04-25T07:49:42.094Z,1.95
2023-04-25T07:52:09.907Z,2.10
2023-04-25T07:54:37.709Z,1.80
2023-04-25T07:57:07.306Z,2.58
2023-04-25T07:59:36.745Z,2.85
2023-04-25T08:02:04.507Z,2.72
2023-04-25T08:04:32.313Z,2.75
2023-04-25T08:07:00.829Z,2.50
2023-04-25T08:09:28.654Z,1.83
2023-04-25T08:11:56.406Z,2.60
2023-04-25T08:14:24.107Z,1.55
2023-04-25T08:16:53.154Z,2.83
2023-04-25T08:19:20.894Z,1.95
2023-04-25T08:21:48.672Z,2.35
2023-04-25T08:24:16.377Z,2.60
2023-04-25T08:26:44.718Z,2.00
2023-04-25T08:29:12.487Z,1.70
2023-04-25T08:31:40.365Z,2.88
2023-04-25T08:34:09.466Z,2.28
2023-04-25T08:36:39.697Z,3.20
2023-04-25T08:39:08.346Z,1.60
2023-04-25T08:41:36.451Z,2.55
2023-04-25T08:44:05.516Z,2.47
2023-04-25T08:46:34.216Z,3.28
2023-04-25T08:49:03.546Z,2.08
2023-04-25T08:51:34.175Z,2.45
2023-04-25T08:54:28.004Z,2.17
2023-04-25T08:57:00.558Z,2.45
2023-04-25T08:59:29.005Z,1.98
2023-04-25T09:01:57.146Z,2.88
2023-04-25T09:04:24.881Z,3.10
2023-04-25T09:06:53.973Z,2.38
2023-04-25T09:09:22.415Z,2.60
2023-04-25T09:11:50.484Z,2.08
2023-04-25T09:14:21.434Z,2.15
2023-04-25T09:17:03.670Z,2.30
2023-04-25T09:19:40.398Z,2.22
2023-04-25T09:22:10.694Z,2.05
2023-04-25T09:24:39.704Z,2.03
2023-04-25T09:27:08.393Z,2.67
2023-04-25T09:29:38.666Z,2.15
2023-04-25T09:32:14.737Z,1.60
2023-04-25T09:34:43.697Z,2.35
2023-04-25T09:37:13.659Z,2.08
2023-04-25T09:39:41.641Z,2.15
2023-04-25T09:42:11.724Z,1.70
2023-04-25T09:44:44.546Z,1.58
2023-04-25T09:47:13.608Z,3.20
2023-04-25T09:49:44.018Z,1.63
2023-04-25T09:52:16.371Z,1.77
2023-04-25T09:54:44.168Z,1.45
2023-04-25T09:57:14.389Z,2.50
2023-04-25T09:59:46.556Z,1.92
2023-04-25T10:02:15.868Z,1.88
2023-04-25T10:04:44.809Z,1.38
2023-04-25T10:07:14.400Z,2.00
2023-04-25T10:09:42.884Z,1.98
2023-04-25T10:12:10.675Z,2.15
2023-04-25T10:14:38.471Z,1.60
2023-04-25T10:17:06.193Z,1.92
2023-04-25T10:19:34.449Z,1.65
2023-04-25T10:22:09.900Z,1.58
2023-04-25T10:24:40.488Z,1.55
2023-04-25T10:27:08.589Z,2.08
2023-04-25T10:29:37.347Z,1.65
2023-04-25T10:32:05.618Z,2.10
2023-04-25T10:34:43.984Z,1.77
2023-04-25T10:37:12.477Z,1.08
2023-04-25T10:39:43.263Z,1.73
2023-04-25T10:42:11.145Z,2.58
2023-04-25T10:44:40.407Z,1.92
2023-04-25T10:47:10.529Z,1.65
2023-04-25T10:49:40.246Z,2.17
2023-04-25T10:52:16.395Z,1.40
2023-04-25T10:54:49.255Z,1.60
2023-04-25T10:57:29.753Z,1.33
2023-04-25T11:00:01.375Z,2.55
2023-04-25T11:02:30.428Z,1.67
2023-04-25T11:04:58.400Z,1.35
2023-04-25T11:07:35.932Z,1.92
2023-04-25T11:10:06.012Z,1.45
2023-04-25T11:12:34.013Z,1.92
2023-04-25T11:15:03.266Z,1.70
2023-04-25T11:17:31.699Z,1.70
2023-04-25T11:19:59.866Z,1.80
2023-04-25T11:22:30.894Z,1.92
2023-04-25T11:24:58.622Z,1.25
2023-04-25T11:27:27.731Z,2.10
2023-04-25T11:29:55.878Z,2.78
2023-04-25T11:32:24.283Z,1.90
2023-04-25T11:34:54.761Z,1.92
2023-04-25T11:37:22.523Z,1.75
2023-04-25T11:39:50.362Z,1.52
2023-04-25T11:42:18.208Z,1.75
2023-04-25T11:44:47.350Z,1.63
2023-04-25T11:47:15.057Z,2.78
2023-04-25T11:49:42.828Z,1.70
2023-04-25T11:52:10.693Z,1.80
2023-04-25T11:54:38.933Z,2.25
2023-04-25T11:57:06.780Z,1.58
2023-04-25T11:59:34.647Z,1.50
2023-04-25T12:02:03.797Z,1.40
2023-04-25T12:04:33.617Z,1.40
2023-04-25T12:07:02.711Z,1.65
2023-04-25T12:09:32.723Z,1.70
2023-04-25T12:12:04.106Z,1.90
2023-04-25T12:14:33.894Z,1.30
2023-04-25T12:17:04.893Z,1.45
2023-04-25T12:19:36.870Z,1.42
2023-04-25T12:22:05.494Z,1.58
2023-04-25T12:24:39.041Z,1.08
2023-04-25T12:27:09.189Z,2.00
2023-04-25T12:32:09.266Z,1.17
2023-04-25T12:34:37.138Z,1.40
2023-04-25T12:37:04.912Z,1.02
2023-04-25T12:39:32.684Z,1.42
2023-04-25T12:42:00.759Z,2.00
2023-04-25T12:44:28.976Z,1.58
2023-04-25T12:46:56.956Z,1.80
2023-04-25T12:49:26.396Z,1.25
2023-04-25T12:51:54.140Z,1.10
2023-04-25T12:54:21.877Z,1.17
2023-04-25T12:56:49.635Z,1.25
2023-04-25T12:59:17.344Z,1.63
2023-04-25T13:01:45.383Z,0.88
2023-04-25T13:04:13.303Z,1.30
2023-04-25T13:06:42.625Z,1.13
2023-04-25T13:09:10.591Z,1.17
2023-04-25T13:11:38.366Z,1.30
2023-04-25T13:14:07.626Z,1.90
2023-04-25T13:16:35.676Z,1.70
2023-04-25T13:19:03.834Z,1.17
2023-04-25T13:21:33.563Z,1.02
2023-04-25T13:24:02.749Z,1.20
2023-04-25T13:26:30.559Z,1.58
2023-04-25T13:28:58.256Z,1.40
2023-04-25T13:31:26.296Z,1.20
2023-04-25T13:33:54.257Z,0.93
2023-04-25T13:36:22.173Z,1.95
2023-04-25T13:38:50.576Z,1.50
2023-04-25T13:41:19.883Z,1.38
2023-04-25T13:43:49.858Z,1.20
2023-04-25T13:48:49.688Z,1.40
2023-04-25T13:51:18.576Z,1.20
2023-04-25T13:53:46.809Z,1.30
2023-04-25T13:56:14.575Z,1.48
2023-04-25T13:58:43.666Z,1.30
2023-04-25T14:01:12.539Z,1.23
2023-04-25T14:03:41.035Z,1.33
2023-04-25T14:06:09.605Z,1.20
2023-04-25T14:08:37.401Z,1.50
2023-04-25T14:11:05.219Z,1.27
2023-04-25T14:13:32.962Z,1.23
2023-04-25T14:16:02.291Z,1.15
2023-04-25T14:18:30.034Z,1.27
2023-04-25T14:20:57.708Z,1.30
2023-04-25T14:23:25.512Z,1.30
2023-04-25T14:25:53.286Z,1.85
2023-04-25T14:28:21.788Z,1.42
2023-04-25T14:30:49.558Z,1.27
2023-04-25T14:33:18.668Z,2.38
2023-04-25T14:35:46.706Z,1.30
2023-04-25T14:38:15.181Z,1.27
2023-04-25T14:40:43.608Z,1.15
2023-04-25T14:43:11.401Z,2.05
2023-04-25T14:45:39.122Z,1.45
2023-04-25T14:48:07.688Z,1.83
2023-04-25T14:50:36.957Z,2.00
2023-04-25T14:53:04.716Z,1.70
2023-04-25T14:55:32.577Z,1.48
2023-04-25T14:58:00.291Z,1.60
2023-04-25T15:00:28.039Z,1.73
2023-04-25T15:02:56.069Z,1.50
2023-04-25T15:05:23.877Z,1.52
2023-04-25T15:07:52.968Z,1.75
2023-04-25T15:10:21.310Z,1.42
2023-04-25T15:12:49.035Z,1.55
2023-04-25T15:15:25.917Z,2.88
2023-04-25T15:17:58.663Z,1.50
2023-04-25T15:20:27.900Z,1.25
2023-04-25T15:22:57.138Z,1.63
2023-04-25T15:25:25.024Z,1.20
2023-04-25T15:27:54.549Z,1.13
2023-04-25T15:30:22.723Z,1.27
2023-04-25T15:32:50.594Z,1.63
2023-04-25T15:35:18.301Z,1.55
2023-04-25T15:37:46.285Z,1.55
2023-04-25T15:40:17.504Z,1.60
2023-04-25T15:42:48.477Z,2.33
2023-04-25T15:45:17.857Z,1.10
2023-04-25T15:47:46.531Z,1.50
2023-04-25T15:50:15.963Z,1.67
2023-04-25T15:52:43.951Z,1.52
2023-04-25T15:55:12.913Z,1.58
2023-04-25T15:57:42.455Z,2.47
2023-04-25T16:00:13.060Z,1.80
2023-04-25T16:02:41.918Z,1.50
2023-04-25T16:05:11.485Z,1.27
2023-04-25T16:07:39.892Z,1.30
2023-04-25T16:10:08.717Z,1.45
2023-04-25T16:12:37.145Z,1.75
2023-04-25T16:15:07.058Z,1.63
2023-04-25T16:17:35.358Z,1.27
2023-04-25T16:20:09.542Z,1.55
2023-04-25T16:22:37.431Z,1.35
2023-04-25T16:25:05.844Z,2.03
2023-04-25T16:27:34.586Z,1.27
2023-04-25T16:30:02.339Z,1.40
2023-04-25T16:32:31.907Z,1.48
2023-04-25T16:34:59.604Z,1.80
2023-04-25T16:37:27.697Z,1.77
2023-04-25T16:39:55.461Z,1.90
2023-04-25T16:42:23.240Z,1.40
2023-04-25T16:44:51.029Z,1.58
2023-04-25T16:47:20.381Z,1.52
2023-04-25T16:49:50.793Z,1.35
2023-04-25T16:52:21.279Z,1.55
2023-04-25T16:54:48.946Z,1.30
2023-04-25T16:57:16.745Z,1.70
2023-04-25T16:59:44.448Z,1.65
2023-04-25T17:02:13.935Z,1.60
2023-04-25T17:04:42.083Z,1.20
2023-04-25T17:07:11.337Z,1.40
2023-04-25T17:09:39.134Z,1.00
2023-04-25T17:12:08.088Z,1.48
2023-04-25T17:14:35.890Z,1.45
2023-04-25T17:17:03.854Z,1.70
2023-04-25T17:19:32.260Z,1.58
2023-04-25T17:22:00.189Z,1.30
2023-04-25T17:24:29.291Z,1.52
2023-04-25T17:26:57.368Z,1.30
2023-04-25T17:29:26.764Z,1.58
2023-04-25T17:31:54.624Z,1.35
2023-04-25T17:34:22.344Z,1.48
2023-04-25T17:36:50.338Z,1.33
2023-04-25T17:39:18.339Z,1.55
2023-04-25T17:41:47.453Z,1.40
2023-04-25T17:44:15.144Z,1.13
2023-04-25T17:46:42.913Z,1.38
2023-04-25T17:49:11.656Z,1.55
2023-04-25T17:51:39.468Z,1.73
2023-04-25T17:54:07.684Z,1.40
2023-04-25T17:56:38.424Z,1.73
2023-04-25T17:59:07.788Z,1.13
2023-04-25T18:01:35.961Z,1.65
2023-04-25T18:04:04.463Z,1.80
2023-04-25T18:06:32.806Z,1.67
2023-04-25T18:09:02.065Z,2.00
2023-04-25T18:11:30.761Z,1.23
2023-04-25T18:13:58.524Z,1.60
2023-04-25T18:16:29.459Z,1.50
2023-04-25T18:19:05.197Z,1.88
2023-04-25T18:21:32.929Z,1.88
2023-04-25T18:24:01.220Z,1.98
2023-04-25T18:26:30.800Z,1.50
2023-04-25T18:28:59.063Z,1.83
2023-04-25T18:31:29.825Z,1.30
2023-04-25T18:33:57.612Z,1.63
2023-04-25T18:36:25.370Z,2.13
2023-04-25T18:38:56.226Z,1.70
2023-04-25T18:41:50.980Z,2.03
2023-04-25T18:44:13.709Z,3.03
2023-04-25T18:46:43.696Z,1.58
2023-04-25T18:49:11.411Z,1.98
2023-04-25T18:51:39.190Z,2.15
2023-04-25T18:54:09.770Z,2.03
2023-04-25T18:56:37.575Z,1.77
2023-04-25T18:59:05.596Z,1.35
2023-04-25T19:01:33.670Z,2.00
2023-04-25T19:04:05.823Z,1.70
2023-04-25T19:06:34.629Z,2.45
2023-04-25T19:09:02.707Z,1.60
2023-04-25T19:11:30.741Z,1.52
2023-04-25T19:13:58.465Z,1.55
2023-04-25T19:16:27.597Z,2.15
2023-04-25T19:18:56.398Z,1.95
2023-04-25T19:21:25.542Z,1.98
2023-04-25T19:23:54.374Z,1.70
2023-04-25T19:26:22.623Z,2.00
2023-04-25T19:29:04.524Z,1.85
2023-04-25T19:31:32.464Z,2.15
2023-04-25T19:34:00.323Z,1.77
2023-04-25T19:36:29.502Z,1.75
2023-04-25T19:39:02.392Z,1.70
2023-04-25T19:41:30.262Z,1.85
2023-04-25T19:43:59.881Z,1.40
2023-04-25T19:46:27.726Z,2.30
2023-04-25T19:48:55.425Z,1.65
2023-04-25T19:51:23.343Z,1.60
2023-04-25T19:53:54.420Z,1.58
2023-04-25T19:56:22.284Z,1.60
2023-04-25T19:58:51.125Z,1.70
2023-04-25T20:01:22.076Z,1.67
2023-04-25T20:03:51.640Z,1.88
2023-04-25T20:06:20.094Z,1.60
2023-04-25T20:08:48.125Z,1.50
2023-04-25T20:11:17.605Z,1.67
2023-04-25T20:13:45.395Z,1.95
2023-04-25T20:16:13.518Z,1.33
2023-04-25T20:18:41.554Z,1.63
2023-04-25T20:21:09.486Z,2.53
2023-04-25T20:23:37.232Z,1.90
2023-04-25T20:26:05.154Z,2.30
2023-04-25T20:28:35.469Z,1.60
2023-04-25T20:31:03.234Z,1.60
2023-04-25T20:33:31.120Z,1.98
2023-04-25T20:35:58.952Z,2.10
2023-04-25T20:38:26.893Z,1.63
2023-04-25T20:40:56.357Z,2.00
2023-04-25T20:43:25.805Z,3.25
2023-04-25T20:45:55.220Z,2.13
2023-04-25T20:48:23.070Z,2.20
2023-04-25T20:50:51.491Z,1.70
2023-04-25T20:53:19.453Z,1.50
2023-04-25T20:55:47.303Z,1.50
2023-04-25T20:58:15.327Z,2.03
2023-04-25T21:00:43.920Z,1.67
2023-04-25T21:03:13.257Z,1.80
2023-04-25T21:05:41.218Z,3.05
2023-04-25T21:08:09.515Z,1.90
2023-04-25T21:10:37.662Z,1.85
2023-04-25T21:13:05.838Z,2.05
2023-04-25T21:15:33.714Z,1.98
2023-04-25T21:18:01.869Z,1.58
2023-04-25T21:20:31.427Z,2.05
2023-04-25T21:23:00.229Z,2.00
2023-04-25T21:25:31.289Z,2.50
2023-04-25T21:28:02.237Z,2.67
2023-04-25T21:30:30.282Z,3.13
2023-04-25T21:32:58.081Z,1.98
2023-04-25T21:35:26.073Z,2.20
2023-04-25T21:37:55.289Z,3.03
2023-04-25T21:40:22.974Z,2.28
2023-04-25T21:42:53.325Z,2.70
2023-04-25T21:45:21.564Z,1.83
2023-04-25T21:47:49.604Z,2.20
2023-04-25T21:50:18.470Z,2.08
2023-04-25T21:52:46.705Z,2.13
2023-04-25T21:55:16.494Z,2.40
2023-04-25T21:57:44.561Z,2.63
2023-04-25T22:00:24.650Z,2.35
2023-04-25T22:02:53.372Z,2.63
2023-04-25T22:05:22.489Z,1.88
2023-04-25T22:07:51.550Z,2.28
2023-04-25T22:10:21.385Z,1.92
2023-04-25T22:12:50.846Z,2.60
2023-04-25T22:15:19.344Z,2.85
2023-04-25T22:17:47.500Z,2.75
2023-04-25T22:20:15.931Z,2.30
2023-04-25T22:22:44.111Z,2.83
2023-04-25T22:25:12.964Z,2.70
2023-04-25T22:27:43.661Z,2.65
2023-04-25T22:30:13.710Z,2.47
2023-04-25T22:32:42.277Z,2.08
2023-04-25T22:35:11.711Z,2.80
2023-04-25T22:37:40.088Z,2.40
2023-04-25T22:40:09.146Z,2.80
2023-04-25T22:42:40.770Z,3.65
2023-04-25T22:45:11.425Z,2.83
2023-04-25T22:47:40.837Z,2.85
2023-04-25T22:50:13.177Z,3.25
2023-04-25T22:52:41.902Z,2.28
2023-04-25T22:55:10.940Z,2.55
2023-04-25T22:57:39.323Z,2.15
2023-04-25T23:00:15.695Z,2.58
